Gulf Nomad — C6DL8 — position and weather

sailwx.info

Track history (hours):
 
Tides and Currents Weather Stations Pressure Air Temp Water Temp Dewpoint Dewpoint Depression Visibility Wind Speed Wind Dir Waves Ship Positions

Gulf Nomad

Last reported at 2018-Jul-18 08:31 UTC. Time now 2018-Jul-20 00:43 UTC.
Position N 57°47' E 010°32'.

Type: Tanker. MMSI: 308951000.

Date/timePositionNaut miles runAvg speedWind from/ knotsBaromVisibWave heightAir tempDewpointWater temp
2018-Jul-18 08:31N 57°47' E 010°32'011.6
2018-Jul-18 08:30N 57°47' E 010°32'611.1
2018-Jul-18 08:00N 57°46' E 010°42'510.7
2018-Jul-18 07:30N 57°41' E 010°46'611.9
2018-Jul-18 07:00N 57°35' E 010°45'612.3
2018-Jul-18 06:30N 57°29' E 010°45'612.7
2018-Jul-18 06:00N 57°23' E 010°45'1112.8
2018-Jul-18 05:08N 57°12' E 010°45'212.9
2018-Jul-18 05:00N 57°10' E 010°46'612.6
2018-Jul-18 04:30N 57°04' E 010°49'612.5
2018-Jul-18 03:59N 56°58' E 010°53'612.4
2018-Jul-18 03:30N 56°52' E 010°52'612.1
2018-Jul-18 03:00N 56°47' E 010°57'9511.4
2018-Jul-17 18:39N 55°12' E 011°15'512.1
2018-Jul-17 18:15N 55°08' E 011°19'312.2
2018-Jul-17 18:00N 55°05' E 011°22'612.0
2018-Jul-17 17:30N 55°04' E 011°32'13 2.1
2018-Jul-17 11:35N 54°60' E 011°53'0 0.0
2018-Jul-17 11:23N 54°60' E 011°53'0 0.0
2018-Jul-17 10:59N 54°60' E 011°53'0 0.0
2018-Jul-17 05:41N 54°60' E 011°53'0 0.0
2018-Jul-17 05:11N 54°60' E 011°53'0 0.0
2018-Jul-17 05:00N 54°60' E 011°53'0 0.0
2018-Jul-17 04:30N 54°60' E 011°53'1 2.6
2018-Jul-17 04:00N 55°01' E 011°51'4 8.2
2018-Jul-17 03:30N 55°02' E 011°44'4 8.1
2018-Jul-17 03:00N 55°03' E 011°38'5 9.2
2018-Jul-17 02:30N 55°04' E 011°30'4 8.2
2018-Jul-17 02:00N 55°05' E 011°23'510.5
2018-Jul-17 01:30N 55°09' E 011°18'5 9.5
2018-Jul-17 01:00N 55°13' E 011°13'3610.2
2018-Jul-16 21:30N 55°46' E 010°48'510.7
2018-Jul-16 21:00N 55°51' E 010°51'611.6
2018-Jul-16 20:30N 55°55' E 010°57'611.4
2018-Jul-16 20:00N 56°00' E 011°03'611.5
2018-Jul-16 19:28N 56°06' E 011°09'511.3
2018-Jul-16 19:00N 56°08' E 011°17'611.9
2018-Jul-16 18:29N 56°08' E 011°28'611.6
2018-Jul-16 18:00N 56°09' E 011°38'611.8
2018-Jul-16 17:30N 56°10' E 011°49'612.0
2018-Jul-16 17:00N 56°11' E 011°59'612.0
2018-Jul-16 16:30N 56°11' E 012°10'611.6
2018-Jul-16 16:00N 56°11' E 012°20'610.9
2018-Jul-16 15:30N 56°09' E 012°29'811.4
2018-Jul-16 14:48N 56°03' E 012°40'310.8
2018-Jul-16 14:30N 56°00' E 012°41'510.6
2018-Jul-16 14:00N 55°55' E 012°44'510.8
2018-Jul-16 13:30N 55°50' E 012°43'611.3
2018-Jul-16 13:00N 55°44' E 012°42'4 7.6
2018-Jul-16 12:30N 55°41' E 012°39'0 0.6
2018-Jul-16 11:59N 55°41' E 012°39'0 0.0
2018-Jul-16 11:26N 55°41' E 012°39'0 0.0
2018-Jul-16 10:56N 55°41' E 012°39'0 0.0
2018-Jul-16 10:26N 55°41' E 012°39'0 0.0
2018-Jul-16 09:44N 55°41' E 012°39'0 0.0
2018-Jul-16 09:29N 55°41' E 012°39'0 0.0
2018-Jul-16 08:59N 55°41' E 012°39'0 0.0
2018-Jul-16 08:29N 55°41' E 012°39'0 0.0
2018-Jul-16 07:58N 55°41' E 012°39'0 0.0
2018-Jul-16 07:19N 55°41' E 012°39'0 0.0
2018-Jul-16 06:55N 55°41' E 012°39'0 0.0
2018-Jul-16 06:28N 55°41' E 012°39'0 0.0
2018-Jul-16 05:58N 55°41' E 012°39'0 0.0
2018-Jul-16 05:13N 55°41' E 012°39'0 0.0
2018-Jul-16 04:58N 55°41' E 012°39'0 0.0
2018-Jul-16 04:28N 55°41' E 012°39'0 0.0
2018-Jul-16 03:58N 55°41' E 012°39'0 0.0
2018-Jul-16 03:28N 55°41' E 012°39'0 0.0
2018-Jul-16 02:55N 55°41' E 012°39'0 0.0
2018-Jul-16 02:28N 55°41' E 012°39'0 0.0
2018-Jul-16 01:58N 55°41' E 012°39'0 0.0
2018-Jul-16 01:25N 55°41' E 012°39'0 0.0
2018-Jul-16 00:58N 55°41' E 012°39'0 0.0
2018-Jul-16 00:28N 55°41' E 012°39'0 0.0
2018-Jul-15 23:55N 55°41' E 012°39'0 0.0
2018-Jul-15 23:22N 55°41' E 012°39'0 0.0
2018-Jul-15 22:58N 55°41' E 012°39'0 0.0
2018-Jul-15 22:28N 55°41' E 012°39'0 0.0
2018-Jul-15 21:58N 55°41' E 012°39'0 0.0
2018-Jul-15 21:25N 55°41' E 012°39'0 0.0
2018-Jul-15 20:40N 55°41' E 012°39'0 0.0
2018-Jul-15 20:28N 55°41' E 012°39'0 0.0
2018-Jul-15 19:58N 55°41' E 012°39'0 0.0
2018-Jul-15 19:28N 55°41' E 012°39'0 0.0
2018-Jul-15 18:58N 55°41' E 012°39'0 0.0
2018-Jul-15 18:28N 55°41' E 012°39'0 0.0
2018-Jul-15 17:49N 55°41' E 012°39'0 0.0
2018-Jul-15 17:28N 55°41' E 012°39'0 0.0
2018-Jul-15 16:52N 55°41' E 012°39'0 0.2
2018-Jul-15 16:10N 55°41' E 012°39'0 0.0
2018-Jul-15 15:55N 55°41' E 012°39'0 0.0
2018-Jul-15 15:16N 55°41' E 012°39'0 0.0
2018-Jul-15 14:58N 55°41' E 012°39'0 0.0
2018-Jul-15 14:22N 55°41' E 012°39'0 0.0
2018-Jul-15 13:58N 55°41' E 012°39'0 0.0
2018-Jul-15 13:28N 55°41' E 012°39'0 0.0
2018-Jul-15 12:58N 55°41' E 012°39'0 0.0
2018-Jul-15 12:28N 55°41' E 012°39'0 0.0
2018-Jul-15 11:58N 55°41' E 012°39'0 0.0
2018-Jul-15 11:28N 55°41' E 012°39'0 0.0
2018-Jul-15 10:58N 55°41' E 012°39'0 0.0
2018-Jul-15 10:25N 55°41' E 012°39'0 0.0
2018-Jul-15 09:58N 55°41' E 012°39'0 0.0
2018-Jul-15 09:25N 55°41' E 012°39'0 0.0
2018-Jul-15 08:58N 55°41' E 012°39'0 0.0
2018-Jul-15 08:25N 55°41' E 012°39'0 0.0
2018-Jul-15 07:55N 55°41' E 012°39'0 0.0
2018-Jul-15 07:28N 55°41' E 012°39'0 0.0
2018-Jul-15 06:46N 55°41' E 012°39'0 0.0
2018-Jul-15 06:28N 55°41' E 012°39'0 0.0
2018-Jul-15 05:55N 55°41' E 012°39'0 0.0
2018-Jul-15 05:22N 55°41' E 012°39'0 0.0
2018-Jul-15 04:58N 55°41' E 012°39'0 0.0
2018-Jul-15 04:01N 55°41' E 012°39'0 0.0
2018-Jul-15 03:58N 55°41' E 012°39'0 0.0
2018-Jul-15 03:25N 55°41' E 012°39'0 0.0
2018-Jul-15 02:37N 55°41' E 012°39'0 0.0
2018-Jul-15 02:28N 55°41' E 012°39'0 0.0
2018-Jul-15 02:00N 55°41' E 012°39'0 0.5
2018-Jul-15 01:31N 55°41' E 012°39'0 0.8
2018-Jul-15 01:01N 55°41' E 012°38'3 5.5
2018-Jul-15 00:31N 55°44' E 012°40'5 9.8
2018-Jul-15 00:01N 55°49' E 012°42'511.0
2018-Jul-14 23:31N 55°54' E 012°39'510.8
2018-Jul-14 23:01N 55°59' E 012°38'5 9.8
2018-Jul-14 22:30N 56°04' E 012°36'8910.9
2018-Jul-14 14:20N 57°24' E 011°26'910.7
2018-Jul-14 13:31N 57°31' E 011°16'611.3
2018-Jul-14 13:01N 57°35' E 011°08'611.2
2018-Jul-14 12:30N 57°39' E 011°01'511.1
2018-Jul-14 12:01N 57°43' E 010°53'611.1
2018-Jul-14 11:30N 57°47' E 010°45'912.3
2018-Jul-14 10:48N 57°48' E 010°30'6611.1
2018-Jul-14 04:51N 57°54' E 008°26'411.0
2018-Jul-14 04:30N 57°54' E 008°19'511.0
2018-Jul-14 04:00N 57°54' E 008°09'611.3
2018-Jul-14 03:28N 57°55' E 007°57'511.5
2018-Jul-14 03:00N 57°55' E 007°47'611.4
2018-Jul-14 02:29N 57°56' E 007°36'5 9.7
2018-Jul-14 02:00N 57°58' E 007°28'3 0.4
2018-Jul-13 18:27N 58°01' E 007°30'0 0.0
2018-Jul-13 17:57N 58°01' E 007°30'0 0.0
2018-Jul-13 17:23N 58°01' E 007°30'0 0.0
2018-Jul-13 16:34N 58°01' E 007°30'0 0.7
2018-Jul-13 16:12N 58°01' E 007°30'1 4.1
2018-Jul-13 16:00N 58°00' E 007°30'3 6.3
2018-Jul-13 15:31N 57°57' E 007°31'611.3
2018-Jul-13 15:00N 57°57' E 007°42'611.4
2018-Jul-13 14:31N 57°56' E 007°52'1211.6
2018-Jul-13 13:31N 57°57' E 008°14'612.1
2018-Jul-13 13:00N 57°57' E 008°26'612.3
2018-Jul-13 12:30N 57°57' E 008°37'812.2
2018-Jul-13 11:53N 57°56' E 008°51'512.2
2018-Jul-13 11:30N 57°55' E 009°00'611.9
2018-Jul-13 11:00N 57°55' E 009°11'611.8
2018-Jul-13 10:28N 57°54' E 009°23'511.8
2018-Jul-13 10:01N 57°54' E 009°33'612.1
2018-Jul-13 09:30N 57°53' E 009°45'713.2
2018-Jul-13 08:58N 57°51' E 009°57'612.7
2018-Jul-13 08:30N 57°49' E 010°08'612.4
2018-Jul-13 08:00N 57°48' E 010°19'611.7
2018-Jul-13 07:31N 57°48' E 010°30'611.4
2018-Jul-13 07:00N 57°47' E 010°41'611.6
2018-Jul-13 06:30N 57°42' E 010°46'612.9
2018-Jul-13 06:00N 57°36' E 010°46'612.5
2018-Jul-13 05:31N 57°29' E 010°44'612.5
2018-Jul-13 05:01N 57°23' E 010°43'612.5
2018-Jul-13 04:30N 57°17' E 010°43'612.2
2018-Jul-13 04:00N 57°11' E 010°46'612.0
2018-Jul-13 03:31N 57°05' E 010°49'612.3
2018-Jul-13 03:00N 56°59' E 010°52'612.3
2018-Jul-13 02:30N 56°53' E 010°51'611.5
2018-Jul-13 02:00N 56°48' E 010°54'612.6
2018-Jul-13 01:30N 56°43' E 011°02'713.1
2018-Jul-13 01:00N 56°36' E 011°03'713.3
2018-Jul-13 00:30N 56°30' E 011°02'913.1
2018-Jul-12 23:49N 56°21' E 011°01'38 0.9
2018-Jul-11 05:49N 56°58' E 010°52'810.7
2018-Jul-11 05:02N 57°06' E 010°47'110.5
2018-Jul-11 04:59N 57°07' E 010°47'1010.6
2018-Jul-11 04:04N 57°16' E 010°42'110.8
2018-Jul-11 04:00N 57°17' E 010°42'510.6
2018-Jul-11 03:30N 57°22' E 010°43'611.1
2018-Jul-11 03:00N 57°28' E 010°43'710.9
2018-Jul-11 02:20N 57°35' E 010°44'411.0
2018-Jul-11 02:00N 57°38' E 010°44'510.7
2018-Jul-11 01:30N 57°44' E 010°45'5 9.4
2018-Jul-11 01:00N 57°48' E 010°42'511.0
2018-Jul-11 00:30N 57°53' E 010°36'510.7
2018-Jul-11 00:00N 57°57' E 010°31'4610.4
2018-Jul-10 19:34N 58°36' E 009°43'110.9
2018-Jul-10 19:30N 58°36' E 009°42'511.1
2018-Jul-10 19:00N 58°41' E 009°37'611.4
2018-Jul-10 18:28N 58°46' E 009°31'4 8.9
2018-Jul-10 18:00N 58°50' E 009°28'3 5.4
2018-Jul-10 17:30N 58°53' E 009°25'0 0.4
2018-Jul-10 17:00N 58°53' E 009°25'0 0.0
2018-Jul-10 16:30N 58°53' E 009°25'0 0.0
2018-Jul-10 16:00N 58°53' E 009°25'0 0.0
2018-Jul-10 15:30N 58°53' E 009°25'0 0.0
2018-Jul-10 14:59N 58°53' E 009°25'0 0.0
2018-Jul-10 14:30N 58°53' E 009°25'0 0.0
2018-Jul-10 14:00N 58°53' E 009°25'0 0.0
2018-Jul-10 13:30N 58°53' E 009°25'0 0.0
2018-Jul-10 12:59N 58°53' E 009°25'0 0.0
2018-Jul-10 12:30N 58°53' E 009°25'0 0.0
2018-Jul-10 12:00N 58°53' E 009°25'0 0.0
2018-Jul-10 11:30N 58°53' E 009°25'0 0.0
2018-Jul-10 11:00N 58°53' E 009°25'0 0.0
2018-Jul-10 10:30N 58°53' E 009°25'0 0.0
2018-Jul-10 10:00N 58°53' E 009°25'0 0.0
2018-Jul-10 09:30N 58°53' E 009°25'0 0.0
2018-Jul-10 08:59N 58°53' E 009°25'0 0.0
2018-Jul-10 08:30N 58°53' E 009°25'0 0.0
2018-Jul-10 08:00N 58°53' E 009°25'0 0.0
2018-Jul-10 07:30N 58°53' E 009°25'0 0.0
2018-Jul-10 07:00N 58°53' E 009°25'0 0.0
2018-Jul-10 06:30N 58°53' E 009°25'1 2.9
2018-Jul-10 06:00N 58°51' E 009°26'4 7.7
2018-Jul-10 05:30N 58°48' E 009°30'612.5
2018-Jul-10 05:00N 58°50' E 009°41'713.6
2018-Jul-10 04:30N 58°53' E 009°53'713.8
2018-Jul-10 04:00N 58°55' E 010°05'713.5
2018-Jul-10 03:30N 58°58' E 010°17'613.3
2018-Jul-10 03:00N 59°02' E 010°28'713.1
2018-Jul-10 02:30N 59°08' E 010°34'612.7
2018-Jul-10 02:00N 59°14' E 010°36'713.5
2018-Jul-10 01:30N 59°21' E 010°35'713.1
2018-Jul-10 01:00N 59°27' E 010°33'612.7
2018-Jul-10 00:30N 59°33' E 010°37'612.6
2018-Jul-10 00:00N 59°39' E 010°37'612.3
2018-Jul-09 23:30N 59°45' E 010°33'612.2
2018-Jul-09 23:00N 59°51' E 010°36'4 8.4
2018-Jul-09 22:28N 59°54' E 010°43'0 0.0
2018-Jul-09 21:58N 59°54' E 010°43'0 0.0
2018-Jul-09 21:28N 59°54' E 010°43'0 0.0
2018-Jul-09 20:58N 59°54' E 010°43'0 0.0
2018-Jul-09 20:28N 59°54' E 010°43'0 0.0
2018-Jul-09 19:58N 59°54' E 010°43'0 0.0
2018-Jul-09 19:28N 59°54' E 010°43'0 0.0
2018-Jul-09 18:58N 59°54' E 010°43'0 0.0
2018-Jul-09 18:28N 59°54' E 010°43'0 0.0
2018-Jul-09 17:58N 59°54' E 010°43'0 0.0
2018-Jul-09 17:28N 59°54' E 010°43'0 0.0
2018-Jul-09 16:58N 59°54' E 010°43'0 0.0
2018-Jul-09 16:28N 59°54' E 010°43'0 0.0
2018-Jul-09 15:58N 59°54' E 010°43'0 0.0
2018-Jul-09 15:28N 59°54' E 010°43'0 0.0
2018-Jul-09 14:58N 59°54' E 010°43'0 0.0
2018-Jul-09 14:28N 59°54' E 010°43'0 0.0
2018-Jul-09 13:58N 59°54' E 010°43'0 0.0
2018-Jul-09 13:28N 59°54' E 010°43'0 0.0
2018-Jul-09 12:58N 59°54' E 010°43'0 0.0
2018-Jul-09 12:28N 59°54' E 010°43'0 0.0
2018-Jul-09 11:58N 59°54' E 010°43'0 0.0
2018-Jul-09 11:28N 59°54' E 010°43'0 0.0
2018-Jul-09 10:58N 59°54' E 010°43'0 0.0
2018-Jul-09 10:28N 59°54' E 010°43'0 0.0
2018-Jul-09 09:58N 59°54' E 010°43'0 0.0
2018-Jul-09 09:28N 59°54' E 010°43'0 0.0
2018-Jul-09 08:58N 59°54' E 010°43'0 0.0
2018-Jul-09 08:28N 59°54' E 010°43'0 1.0
2018-Jul-09 08:00N 59°54' E 010°42'4 8.6
2018-Jul-09 07:30N 59°51' E 010°37'510.1
2018-Jul-09 07:00N 59°46' E 010°35'510.1
2018-Jul-09 06:30N 59°41' E 010°37'510.3
2018-Jul-09 06:00N 59°36' E 010°38'510.2
2018-Jul-09 05:30N 59°31' E 010°36'611.2
2018-Jul-09 05:00N 59°25' E 010°34'611.2
2018-Jul-09 04:30N 59°20' E 010°36'611.2
2018-Jul-09 04:00N 59°14' E 010°38'510.9
2018-Jul-09 03:30N 59°09' E 010°38'511.0
2018-Jul-09 03:00N 59°05' E 010°31'510.8
2018-Jul-09 02:30N 59°00' E 010°25'510.5
2018-Jul-09 02:00N 58°58' E 010°16'510.6
2018-Jul-09 01:30N 58°56' E 010°06'510.6
2018-Jul-09 01:00N 58°54' E 009°57'510.5
2018-Jul-09 00:30N 58°52' E 009°47'510.7
2018-Jul-09 00:00N 58°50' E 009°38'510.9
2018-Jul-08 23:30N 58°46' E 009°30'510.6
2018-Jul-08 23:00N 58°42' E 009°24'510.5
2018-Jul-08 22:30N 58°38' E 009°17'510.5
2018-Jul-08 22:00N 58°34' E 009°10'510.5
2018-Jul-08 21:29N 58°31' E 009°03'510.9
2018-Jul-08 21:00N 58°27' E 008°56'611.1
2018-Jul-08 20:30N 58°23' E 008°49'511.0
2018-Jul-08 20:00N 58°19' E 008°42'611.0
2018-Jul-08 19:30N 58°15' E 008°35'611.1
2018-Jul-08 19:00N 58°11' E 008°27'611.0
2018-Jul-08 18:30N 58°07' E 008°19'610.8
2018-Jul-08 18:00N 58°04' E 008°11'510.4
2018-Jul-08 17:30N 58°02' E 008°02'510.4
2018-Jul-08 17:00N 57°60' E 007°53'610.8
2018-Jul-08 16:29N 57°57' E 007°43'510.3
2018-Jul-08 16:00N 57°56' E 007°35'510.6
2018-Jul-08 15:30N 57°55' E 007°25'510.6
2018-Jul-08 15:00N 57°55' E 007°15'510.3
2018-Jul-08 14:30N 57°56' E 007°05'510.6
2018-Jul-08 14:00N 57°58' E 006°56'510.5
2018-Jul-08 13:30N 57°59' E 006°46'510.0
2018-Jul-08 13:00N 58°02' E 006°38'5 9.9
2018-Jul-08 12:30N 58°05' E 006°31'610.7
2018-Jul-08 12:00N 58°09' E 006°23'611.4
2018-Jul-08 11:30N 58°12' E 006°15'611.4
2018-Jul-08 11:00N 58°16' E 006°07'611.6
2018-Jul-08 10:30N 58°20' E 005°59'611.7
2018-Jul-08 10:00N 58°24' E 005°51'611.7
2018-Jul-08 09:29N 58°28' E 005°43'611.9
2018-Jul-08 09:00N 58°33' E 005°37'  
Track history (hours):
 
Tides and Currents Weather Stations Pressure Air Temp Water Temp Dewpoint Dewpoint Depression Visibility Wind Speed Wind Dir Waves Ship Positions

Gulf Nomad

Last reported at 2018-Jul-18 08:31 UTC. Time now 2018-Jul-20 00:43 UTC.
Position N 57°47' E 010°32'.

Type: Tanker. MMSI: 308951000.

Date/timePositionNaut miles runAvg speedWind from/ knotsBaromVisibWave heightAir tempDewpointWater temp
2018-Jul-18 08:31N 57°47' E 010°32'011.6
2018-Jul-18 08:30N 57°47' E 010°32'611.1
2018-Jul-18 08:00N 57°46' E 010°42'510.7
2018-Jul-18 07:30N 57°41' E 010°46'611.9
2018-Jul-18 07:00N 57°35' E 010°45'612.3
2018-Jul-18 06:30N 57°29' E 010°45'612.7
2018-Jul-18 06:00N 57°23' E 010°45'1112.8
2018-Jul-18 05:08N 57°12' E 010°45'212.9
2018-Jul-18 05:00N 57°10' E 010°46'612.6
2018-Jul-18 04:30N 57°04' E 010°49'612.5
2018-Jul-18 03:59N 56°58' E 010°53'612.4
2018-Jul-18 03:30N 56°52' E 010°52'612.1
2018-Jul-18 03:00N 56°47' E 010°57'9511.4
2018-Jul-17 18:39N 55°12' E 011°15'512.1
2018-Jul-17 18:15N 55°08' E 011°19'312.2
2018-Jul-17 18:00N 55°05' E 011°22'612.0
2018-Jul-17 17:30N 55°04' E 011°32'13 2.1
2018-Jul-17 11:35N 54°60' E 011°53'0 0.0
2018-Jul-17 11:23N 54°60' E 011°53'0 0.0
2018-Jul-17 10:59N 54°60' E 011°53'0 0.0
2018-Jul-17 05:41N 54°60' E 011°53'0 0.0
2018-Jul-17 05:11N 54°60' E 011°53'0 0.0
2018-Jul-17 05:00N 54°60' E 011°53'0 0.0
2018-Jul-17 04:30N 54°60' E 011°53'1 2.6
2018-Jul-17 04:00N 55°01' E 011°51'4 8.2
2018-Jul-17 03:30N 55°02' E 011°44'4 8.1
2018-Jul-17 03:00N 55°03' E 011°38'5 9.2
2018-Jul-17 02:30N 55°04' E 011°30'4 8.2
2018-Jul-17 02:00N 55°05' E 011°23'510.5
2018-Jul-17 01:30N 55°09' E 011°18'5 9.5
2018-Jul-17 01:00N 55°13' E 011°13'3610.2
2018-Jul-16 21:30N 55°46' E 010°48'510.7
2018-Jul-16 21:00N 55°51' E 010°51'611.6
2018-Jul-16 20:30N 55°55' E 010°57'611.4
2018-Jul-16 20:00N 56°00' E 011°03'611.5
2018-Jul-16 19:28N 56°06' E 011°09'511.3
2018-Jul-16 19:00N 56°08' E 011°17'611.9
2018-Jul-16 18:29N 56°08' E 011°28'611.6
2018-Jul-16 18:00N 56°09' E 011°38'611.8
2018-Jul-16 17:30N 56°10' E 011°49'612.0
2018-Jul-16 17:00N 56°11' E 011°59'612.0
2018-Jul-16 16:30N 56°11' E 012°10'611.6
2018-Jul-16 16:00N 56°11' E 012°20'610.9
2018-Jul-16 15:30N 56°09' E 012°29'811.4
2018-Jul-16 14:48N 56°03' E 012°40'310.8
2018-Jul-16 14:30N 56°00' E 012°41'510.6
2018-Jul-16 14:00N 55°55' E 012°44'510.8
2018-Jul-16 13:30N 55°50' E 012°43'611.3
2018-Jul-16 13:00N 55°44' E 012°42'4 7.6
2018-Jul-16 12:30N 55°41' E 012°39'0 0.6
2018-Jul-16 11:59N 55°41' E 012°39'0 0.0
2018-Jul-16 11:26N 55°41' E 012°39'0 0.0
2018-Jul-16 10:56N 55°41' E 012°39'0 0.0
2018-Jul-16 10:26N 55°41' E 012°39'0 0.0
2018-Jul-16 09:44N 55°41' E 012°39'0 0.0
2018-Jul-16 09:29N 55°41' E 012°39'0 0.0
2018-Jul-16 08:59N 55°41' E 012°39'0 0.0
2018-Jul-16 08:29N 55°41' E 012°39'0 0.0
2018-Jul-16 07:58N 55°41' E 012°39'0 0.0
2018-Jul-16 07:19N 55°41' E 012°39'0 0.0
2018-Jul-16 06:55N 55°41' E 012°39'0 0.0
2018-Jul-16 06:28N 55°41' E 012°39'0 0.0
2018-Jul-16 05:58N 55°41' E 012°39'0 0.0
2018-Jul-16 05:13N 55°41' E 012°39'0 0.0
2018-Jul-16 04:58N 55°41' E 012°39'0 0.0
2018-Jul-16 04:28N 55°41' E 012°39'0 0.0
2018-Jul-16 03:58N 55°41' E 012°39'0 0.0
2018-Jul-16 03:28N 55°41' E 012°39'0 0.0
2018-Jul-16 02:55N 55°41' E 012°39'0 0.0
2018-Jul-16 02:28N 55°41' E 012°39'0 0.0
2018-Jul-16 01:58N 55°41' E 012°39'0 0.0
2018-Jul-16 01:25N 55°41' E 012°39'0 0.0
2018-Jul-16 00:58N 55°41' E 012°39'0 0.0
2018-Jul-16 00:28N 55°41' E 012°39'0 0.0
2018-Jul-15 23:55N 55°41' E 012°39'0 0.0
2018-Jul-15 23:22N 55°41' E 012°39'0 0.0
2018-Jul-15 22:58N 55°41' E 012°39'0 0.0
2018-Jul-15 22:28N 55°41' E 012°39'0 0.0
2018-Jul-15 21:58N 55°41' E 012°39'0 0.0
2018-Jul-15 21:25N 55°41' E 012°39'0 0.0
2018-Jul-15 20:40N 55°41' E 012°39'0 0.0
2018-Jul-15 20:28N 55°41' E 012°39'0 0.0
2018-Jul-15 19:58N 55°41' E 012°39'0 0.0
2018-Jul-15 19:28N 55°41' E 012°39'0 0.0
2018-Jul-15 18:58N 55°41' E 012°39'0 0.0
2018-Jul-15 18:28N 55°41' E 012°39'0 0.0
2018-Jul-15 17:49N 55°41' E 012°39'0 0.0
2018-Jul-15 17:28N 55°41' E 012°39'0 0.0
2018-Jul-15 16:52N 55°41' E 012°39'0 0.2
2018-Jul-15 16:10N 55°41' E 012°39'0 0.0
2018-Jul-15 15:55N 55°41' E 012°39'0 0.0
2018-Jul-15 15:16N 55°41' E 012°39'0 0.0
2018-Jul-15 14:58N 55°41' E 012°39'0 0.0
2018-Jul-15 14:22N 55°41' E 012°39'0 0.0
2018-Jul-15 13:58N 55°41' E 012°39'0 0.0
2018-Jul-15 13:28N 55°41' E 012°39'0 0.0
2018-Jul-15 12:58N 55°41' E 012°39'0 0.0
2018-Jul-15 12:28N 55°41' E 012°39'0 0.0
2018-Jul-15 11:58N 55°41' E 012°39'0 0.0
2018-Jul-15 11:28N 55°41' E 012°39'0 0.0
2018-Jul-15 10:58N 55°41' E 012°39'0 0.0
2018-Jul-15 10:25N 55°41' E 012°39'0 0.0
2018-Jul-15 09:58N 55°41' E 012°39'0 0.0
2018-Jul-15 09:25N 55°41' E 012°39'0 0.0
2018-Jul-15 08:58N 55°41' E 012°39'0 0.0
2018-Jul-15 08:25N 55°41' E 012°39'0 0.0
2018-Jul-15 07:55N 55°41' E 012°39'0 0.0
2018-Jul-15 07:28N 55°41' E 012°39'0 0.0
2018-Jul-15 06:46N 55°41' E 012°39'0 0.0
2018-Jul-15 06:28N 55°41' E 012°39'0 0.0
2018-Jul-15 05:55N 55°41' E 012°39'0 0.0
2018-Jul-15 05:22N 55°41' E 012°39'0 0.0
2018-Jul-15 04:58N 55°41' E 012°39'0 0.0
2018-Jul-15 04:01N 55°41' E 012°39'0 0.0
2018-Jul-15 03:58N 55°41' E 012°39'0 0.0
2018-Jul-15 03:25N 55°41' E 012°39'0 0.0
2018-Jul-15 02:37N 55°41' E 012°39'0 0.0
2018-Jul-15 02:28N 55°41' E 012°39'0 0.0
2018-Jul-15 02:00N 55°41' E 012°39'0 0.5
2018-Jul-15 01:31N 55°41' E 012°39'0 0.8
2018-Jul-15 01:01N 55°41' E 012°38'3 5.5
2018-Jul-15 00:31N 55°44' E 012°40'5 9.8
2018-Jul-15 00:01N 55°49' E 012°42'511.0
2018-Jul-14 23:31N 55°54' E 012°39'510.8
2018-Jul-14 23:01N 55°59' E 012°38'5 9.8
2018-Jul-14 22:30N 56°04' E 012°36'8910.9
2018-Jul-14 14:20N 57°24' E 011°26'910.7
2018-Jul-14 13:31N 57°31' E 011°16'611.3
2018-Jul-14 13:01N 57°35' E 011°08'611.2
2018-Jul-14 12:30N 57°39' E 011°01'511.1
2018-Jul-14 12:01N 57°43' E 010°53'611.1
2018-Jul-14 11:30N 57°47' E 010°45'912.3
2018-Jul-14 10:48N 57°48' E 010°30'6611.1
2018-Jul-14 04:51N 57°54' E 008°26'411.0
2018-Jul-14 04:30N 57°54' E 008°19'511.0
2018-Jul-14 04:00N 57°54' E 008°09'611.3
2018-Jul-14 03:28N 57°55' E 007°57'511.5
2018-Jul-14 03:00N 57°55' E 007°47'611.4
2018-Jul-14 02:29N 57°56' E 007°36'5 9.7
2018-Jul-14 02:00N 57°58' E 007°28'3 0.4
2018-Jul-13 18:27N 58°01' E 007°30'0 0.0
2018-Jul-13 17:57N 58°01' E 007°30'0 0.0
2018-Jul-13 17:23N 58°01' E 007°30'0 0.0
2018-Jul-13 16:34N 58°01' E 007°30'0 0.7
2018-Jul-13 16:12N 58°01' E 007°30'1 4.1
2018-Jul-13 16:00N 58°00' E 007°30'3 6.3
2018-Jul-13 15:31N 57°57' E 007°31'611.3
2018-Jul-13 15:00N 57°57' E 007°42'611.4
2018-Jul-13 14:31N 57°56' E 007°52'1211.6
2018-Jul-13 13:31N 57°57' E 008°14'612.1
2018-Jul-13 13:00N 57°57' E 008°26'612.3
2018-Jul-13 12:30N 57°57' E 008°37'812.2
2018-Jul-13 11:53N 57°56' E 008°51'512.2
2018-Jul-13 11:30N 57°55' E 009°00'611.9
2018-Jul-13 11:00N 57°55' E 009°11'611.8
2018-Jul-13 10:28N 57°54' E 009°23'511.8
2018-Jul-13 10:01N 57°54' E 009°33'612.1
2018-Jul-13 09:30N 57°53' E 009°45'713.2
2018-Jul-13 08:58N 57°51' E 009°57'612.7
2018-Jul-13 08:30N 57°49' E 010°08'612.4
2018-Jul-13 08:00N 57°48' E 010°19'611.7
2018-Jul-13 07:31N 57°48' E 010°30'611.4
2018-Jul-13 07:00N 57°47' E 010°41'611.6
2018-Jul-13 06:30N 57°42' E 010°46'612.9
2018-Jul-13 06:00N 57°36' E 010°46'612.5
2018-Jul-13 05:31N 57°29' E 010°44'612.5
2018-Jul-13 05:01N 57°23' E 010°43'612.5
2018-Jul-13 04:30N 57°17' E 010°43'612.2
2018-Jul-13 04:00N 57°11' E 010°46'612.0
2018-Jul-13 03:31N 57°05' E 010°49'612.3
2018-Jul-13 03:00N 56°59' E 010°52'612.3
2018-Jul-13 02:30N 56°53' E 010°51'611.5
2018-Jul-13 02:00N 56°48' E 010°54'612.6
2018-Jul-13 01:30N 56°43' E 011°02'713.1
2018-Jul-13 01:00N 56°36' E 011°03'713.3
2018-Jul-13 00:30N 56°30' E 011°02'913.1
2018-Jul-12 23:49N 56°21' E 011°01'38 0.9
2018-Jul-11 05:49N 56°58' E 010°52'810.7
2018-Jul-11 05:02N 57°06' E 010°47'110.5
2018-Jul-11 04:59N 57°07' E 010°47'1010.6
2018-Jul-11 04:04N 57°16' E 010°42'110.8
2018-Jul-11 04:00N 57°17' E 010°42'510.6
2018-Jul-11 03:30N 57°22' E 010°43'611.1
2018-Jul-11 03:00N 57°28' E 010°43'710.9
2018-Jul-11 02:20N 57°35' E 010°44'411.0
2018-Jul-11 02:00N 57°38' E 010°44'510.7
2018-Jul-11 01:30N 57°44' E 010°45'5 9.4
2018-Jul-11 01:00N 57°48' E 010°42'511.0
2018-Jul-11 00:30N 57°53' E 010°36'510.7
2018-Jul-11 00:00N 57°57' E 010°31'4610.4
2018-Jul-10 19:34N 58°36' E 009°43'110.9
2018-Jul-10 19:30N 58°36' E 009°42'511.1
2018-Jul-10 19:00N 58°41' E 009°37'611.4
2018-Jul-10 18:28N 58°46' E 009°31'4 8.9
2018-Jul-10 18:00N 58°50' E 009°28'3 5.4
2018-Jul-10 17:30N 58°53' E 009°25'0 0.4
2018-Jul-10 17:00N 58°53' E 009°25'0 0.0
2018-Jul-10 16:30N 58°53' E 009°25'0 0.0
2018-Jul-10 16:00N 58°53' E 009°25'0 0.0
2018-Jul-10 15:30N 58°53' E 009°25'0 0.0
2018-Jul-10 14:59N 58°53' E 009°25'0 0.0
2018-Jul-10 14:30N 58°53' E 009°25'0 0.0
2018-Jul-10 14:00N 58°53' E 009°25'0 0.0
2018-Jul-10 13:30N 58°53' E 009°25'0 0.0
2018-Jul-10 12:59N 58°53' E 009°25'0 0.0
2018-Jul-10 12:30N 58°53' E 009°25'0 0.0
2018-Jul-10 12:00N 58°53' E 009°25'0 0.0
2018-Jul-10 11:30N 58°53' E 009°25'0 0.0
2018-Jul-10 11:00N 58°53' E 009°25'0 0.0
2018-Jul-10 10:30N 58°53' E 009°25'0 0.0
2018-Jul-10 10:00N 58°53' E 009°25'0 0.0
2018-Jul-10 09:30N 58°53' E 009°25'0 0.0
2018-Jul-10 08:59N 58°53' E 009°25'0 0.0
2018-Jul-10 08:30N 58°53' E 009°25'0 0.0
2018-Jul-10 08:00N 58°53' E 009°25'0 0.0
2018-Jul-10 07:30N 58°53' E 009°25'0 0.0
2018-Jul-10 07:00N 58°53' E 009°25'0 0.0
2018-Jul-10 06:30N 58°53' E 009°25'1 2.9
2018-Jul-10 06:00N 58°51' E 009°26'4 7.7
2018-Jul-10 05:30N 58°48' E 009°30'612.5
2018-Jul-10 05:00N 58°50' E 009°41'713.6
2018-Jul-10 04:30N 58°53' E 009°53'713.8
2018-Jul-10 04:00N 58°55' E 010°05'713.5
2018-Jul-10 03:30N 58°58' E 010°17'613.3
2018-Jul-10 03:00N 59°02' E 010°28'713.1
2018-Jul-10 02:30N 59°08' E 010°34'612.7
2018-Jul-10 02:00N 59°14' E 010°36'713.5
2018-Jul-10 01:30N 59°21' E 010°35'713.1
2018-Jul-10 01:00N 59°27' E 010°33'612.7
2018-Jul-10 00:30N 59°33' E 010°37'612.6
2018-Jul-10 00:00N 59°39' E 010°37'612.3
2018-Jul-09 23:30N 59°45' E 010°33'612.2
2018-Jul-09 23:00N 59°51' E 010°36'4 8.4
2018-Jul-09 22:28N 59°54' E 010°43'0 0.0
2018-Jul-09 21:58N 59°54' E 010°43'0 0.0
2018-Jul-09 21:28N 59°54' E 010°43'0 0.0
2018-Jul-09 20:58N 59°54' E 010°43'0 0.0
2018-Jul-09 20:28N 59°54' E 010°43'0 0.0
2018-Jul-09 19:58N 59°54' E 010°43'0 0.0
2018-Jul-09 19:28N 59°54' E 010°43'0 0.0
2018-Jul-09 18:58N 59°54' E 010°43'0 0.0
2018-Jul-09 18:28N 59°54' E 010°43'0 0.0
2018-Jul-09 17:58N 59°54' E 010°43'0 0.0
2018-Jul-09 17:28N 59°54' E 010°43'0 0.0
2018-Jul-09 16:58N 59°54' E 010°43'0 0.0
2018-Jul-09 16:28N 59°54' E 010°43'0 0.0
2018-Jul-09 15:58N 59°54' E 010°43'0 0.0
2018-Jul-09 15:28N 59°54' E 010°43'0 0.0
2018-Jul-09 14:58N 59°54' E 010°43'0 0.0
2018-Jul-09 14:28N 59°54' E 010°43'0 0.0
2018-Jul-09 13:58N 59°54' E 010°43'0 0.0
2018-Jul-09 13:28N 59°54' E 010°43'0 0.0
2018-Jul-09 12:58N 59°54' E 010°43'0 0.0
2018-Jul-09 12:28N 59°54' E 010°43'0 0.0
2018-Jul-09 11:58N 59°54' E 010°43'0 0.0
2018-Jul-09 11:28N 59°54' E 010°43'0 0.0
2018-Jul-09 10:58N 59°54' E 010°43'0 0.0
2018-Jul-09 10:28N 59°54' E 010°43'0 0.0
2018-Jul-09 09:58N 59°54' E 010°43'0 0.0
2018-Jul-09 09:28N 59°54' E 010°43'0 0.0
2018-Jul-09 08:58N 59°54' E 010°43'0 0.0
2018-Jul-09 08:28N 59°54' E 010°43'0 1.0
2018-Jul-09 08:00N 59°54' E 010°42'4 8.6
2018-Jul-09 07:30N 59°51' E 010°37'510.1
2018-Jul-09 07:00N 59°46' E 010°35'510.1
2018-Jul-09 06:30N 59°41' E 010°37'510.3
2018-Jul-09 06:00N 59°36' E 010°38'510.2
2018-Jul-09 05:30N 59°31' E 010°36'611.2
2018-Jul-09 05:00N 59°25' E 010°34'611.2
2018-Jul-09 04:30N 59°20' E 010°36'611.2
2018-Jul-09 04:00N 59°14' E 010°38'510.9
2018-Jul-09 03:30N 59°09' E 010°38'511.0
2018-Jul-09 03:00N 59°05' E 010°31'510.8
2018-Jul-09 02:30N 59°00' E 010°25'510.5
2018-Jul-09 02:00N 58°58' E 010°16'510.6
2018-Jul-09 01:30N 58°56' E 010°06'510.6
2018-Jul-09 01:00N 58°54' E 009°57'510.5
2018-Jul-09 00:30N 58°52' E 009°47'510.7
2018-Jul-09 00:00N 58°50' E 009°38'510.9
2018-Jul-08 23:30N 58°46' E 009°30'510.6
2018-Jul-08 23:00N 58°42' E 009°24'510.5
2018-Jul-08 22:30N 58°38' E 009°17'510.5
2018-Jul-08 22:00N 58°34' E 009°10'510.5
2018-Jul-08 21:29N 58°31' E 009°03'510.9
2018-Jul-08 21:00N 58°27' E 008°56'611.1
2018-Jul-08 20:30N 58°23' E 008°49'511.0
2018-Jul-08 20:00N 58°19' E 008°42'611.0
2018-Jul-08 19:30N 58°15' E 008°35'611.1
2018-Jul-08 19:00N 58°11' E 008°27'611.0
2018-Jul-08 18:30N 58°07' E 008°19'610.8
2018-Jul-08 18:00N 58°04' E 008°11'510.4
2018-Jul-08 17:30N 58°02' E 008°02'510.4
2018-Jul-08 17:00N 57°60' E 007°53'610.8
2018-Jul-08 16:29N 57°57' E 007°43'510.3
2018-Jul-08 16:00N 57°56' E 007°35'510.6
2018-Jul-08 15:30N 57°55' E 007°25'510.6
2018-Jul-08 15:00N 57°55' E 007°15'510.3
2018-Jul-08 14:30N 57°56' E 007°05'510.6
2018-Jul-08 14:00N 57°58' E 006°56'510.5
2018-Jul-08 13:30N 57°59' E 006°46'510.0
2018-Jul-08 13:00N 58°02' E 006°38'5 9.9
2018-Jul-08 12:30N 58°05' E 006°31'610.7
2018-Jul-08 12:00N 58°09' E 006°23'611.4
2018-Jul-08 11:30N 58°12' E 006°15'611.4
2018-Jul-08 11:00N 58°16' E 006°07'611.6
2018-Jul-08 10:30N 58°20' E 005°59'611.7
2018-Jul-08 10:00N 58°24' E 005°51'611.7
2018-Jul-08 09:29N 58°28' E 005°43'611.9
2018-Jul-08 09:00N 58°33' E 005°37'  

Dump ship's entire track history